Time;durP1;ratioP1;P1;durP2;ratioP2;P2;SDS_P1;SDS_P2;PMS_P1;PMS_P2;Temp;Humidity;BMP_temperature;BMP_pressure;BME280_temperature;BME280_humidity;BME280_pressure;Samples;Min_cycle;Max_cycle;Signal;HPM_P1;HPM_P2
2022/10/19 00:00:17;;;;;;;8.30;2.75;;;7.80;99.90;;;;;;5066404;28;20086;-74
2022/10/19 00:02:43;;;;;;;11.00;3.20;;;7.80;99.90;;;;;;5069186;28;20434;-74
2022/10/19 00:05:09;;;;;;;10.50;2.70;;;7.80;99.90;;;;;;5069347;28;20029;-74
2022/10/19 00:07:34;;;;;;;8.82;3.28;;;7.70;99.90;;;;;;5065559;28;20028;-74
2022/10/19 00:10:00;;;;;;;7.05;2.42;;;7.70;99.90;;;;;;5068315;28;20021;-74
2022/10/19 00:12:25;;;;;;;8.95;2.45;;;7.70;99.90;;;;;;5064870;28;20037;-75
2022/10/19 00:14:51;;;;;;;12.95;2.97;;;7.60;99.90;;;;;;5057408;28;20028;-74
2022/10/19 00:17:16;;;;;;;6.78;2.78;;;7.60;99.90;;;;;;5067026;28;20514;-75
2022/10/19 00:19:42;;;;;;;6.47;3.10;;;7.50;99.90;;;;;;5069314;28;20046;-75
2022/10/19 00:22:07;;;;;;;9.57;2.78;;;7.50;99.90;;;;;;5064438;28;20461;-74
2022/10/19 00:24:33;;;;;;;7.78;1.63;;;7.50;99.90;;;;;;5068298;28;20238;-74
2022/10/19 00:26:58;;;;;;;11.02;2.70;;;7.50;99.90;;;;;;5072036;28;20442;-74
2022/10/19 00:29:24;;;;;;;9.60;2.95;;;7.40;99.90;;;;;;5072485;28;20052;-74
2022/10/19 00:31:50;;;;;;;5.22;1.80;;;7.40;99.90;;;;;;5056223;28;20102;-74
2022/10/19 00:34:16;;;;;;;13.77;2.95;;;7.40;99.90;;;;;;5067907;28;20044;-74
2022/10/19 00:36:42;;;;;;;8.80;2.13;;;7.30;99.90;;;;;;5060756;28;20032;-74
2022/10/19 00:39:11;;;;;;;8.10;2.83;;;7.30;99.90;;;;;;5073056;28;20020;-75
2022/10/19 00:41:38;;;;;;;11.23;3.33;;;7.30;99.90;;;;;;5068448;28;20027;-74
2022/10/19 00:44:12;;;;;;;6.85;2.50;;;7.30;99.90;;;;;;5067219;28;20436;-74
2022/10/19 00:46:40;;;;;;;5.40;1.77;;;7.30;99.90;;;;;;5065708;28;20381;-74
2022/10/19 00:49:19;;;;;;;12.48;3.42;;;7.30;99.90;;;;;;5070113;28;20032;-74
2022/10/19 00:51:47;;;;;;;10.63;3.30;;;7.20;99.90;;;;;;5068217;28;20116;-74
2022/10/19 00:54:14;;;;;;;10.70;3.88;;;7.30;99.90;;;;;;5061761;28;20374;-74
2022/10/19 00:56:42;;;;;;;9.90;2.83;;;7.30;99.90;;;;;;5062141;28;20031;-74
2022/10/19 00:59:09;;;;;;;10.07;3.65;;;7.30;99.90;;;;;;5074614;28;20082;-74
2022/10/19 01:01:35;;;;;;;5.40;2.63;;;7.30;99.90;;;;;;5067647;28;20029;-74
2022/10/19 01:04:02;;;;;;;8.27;1.88;;;7.30;99.90;;;;;;5071214;28;20028;-74
2022/10/19 01:06:28;;;;;;;4.78;2.50;;;7.20;99.90;;;;;;5061011;28;20401;-74
2022/10/19 01:08:54;;;;;;;16.25;3.15;;;7.20;99.90;;;;;;5072252;28;20028;-74
2022/10/19 01:11:42;;;;;;;9.82;2.90;;;7.20;99.90;;;;;;5065968;28;20036;-74
2022/10/19 01:14:44;;;;;;;9.77;3.22;;;7.20;99.90;;;;;;5073418;28;20135;-74
2022/10/19 01:17:47;;;;;;;13.50;3.40;;;7.20;99.90;;;;;;5061174;28;20028;-74
2022/10/19 01:21:06;;;;;;;18.52;4.10;;;7.20;99.90;;;;;;5066600;28;20035;-74
2022/10/19 01:23:49;;;;;;;13.75;3.58;;;7.20;99.90;;;;;;5057626;28;20117;-74
2022/10/19 01:26:33;;;;;;;10.52;3.38;;;7.20;99.90;;;;;;5061624;28;20040;-74
2022/10/19 01:29:20;;;;;;;10.73;3.10;;;7.20;99.90;;;;;;5058035;28;20021;-74
2022/10/19 01:32:02;;;;;;;19.52;3.70;;;7.10;99.90;;;;;;5068689;28;20439;-74
2022/10/19 01:34:51;;;;;;;7.90;3.42;;;7.10;99.90;;;;;;5067367;28;20024;-74
2022/10/19 01:37:26;;;;;;;9.10;3.20;;;7.10;99.90;;;;;;5087776;28;20043;-73
2022/10/19 01:40:08;;;;;;;13.32;4.75;;;7.10;99.90;;;;;;5063272;28;20024;-73
2022/10/19 01:43:01;;;;;;;8.93;3.38;;;7.10;99.90;;;;;;5069374;28;20814;-74
2022/10/19 01:45:39;;;;;;;11.38;3.80;;;7.10;99.90;;;;;;5065129;28;20040;-74
2022/10/19 01:48:27;;;;;;;15.15;4.78;;;7.10;99.90;;;;;;5062705;28;20032;-73
2022/10/19 01:51:00;;;;;;;13.15;3.85;;;7.10;99.90;;;;;;5060673;28;20111;-73
2022/10/19 01:53:30;;;;;;;11.90;3.97;;;7.10;99.90;;;;;;5067711;28;20033;-73
2022/10/19 01:55:58;;;;;;;10.73;3.63;;;7.00;99.90;;;;;;5064573;28;20024;-73
2022/10/19 01:58:28;;;;;;;15.60;4.50;;;7.00;99.90;;;;;;5052979;28;20115;-74
2022/10/19 02:00:58;;;;;;;10.43;5.07;;;7.00;99.90;;;;;;5057690;28;20029;-74
2022/10/19 02:03:25;;;;;;;8.55;4.10;;;6.90;99.90;;;;;;5059382;28;20028;-73
2022/10/19 02:05:52;;;;;;;12.85;4.88;;;6.90;99.90;;;;;;5067937;28;20113;-73
2022/10/19 02:08:30;;;;;;;20.33;5.47;;;6.90;99.90;;;;;;5066593;28;20024;-73
2022/10/19 02:10:57;;;;;;;21.58;5.97;;;6.90;99.90;;;;;;5060530;28;20025;-74
2022/10/19 02:13:25;;;;;;;10.35;4.55;;;7.00;99.90;;;;;;5052296;28;20094;-73
2022/10/19 02:15:54;;;;;;;6.50;3.50;;;7.00;99.90;;;;;;5065940;28;20020;-74
2022/10/19 02:18:29;;;;;;;12.65;5.00;;;6.90;99.90;;;;;;5062910;28;20068;-74
2022/10/19 02:20:55;;;;;;;10.85;4.18;;;6.90;99.90;;;;;;5068612;28;20070;-74
2022/10/19 02:23:25;;;;;;;13.23;5.45;;;6.80;99.90;;;;;;5066818;28;20485;-74
2022/10/19 02:25:50;;;;;;;16.33;5.20;;;6.80;99.90;;;;;;5070532;28;20484;-74
2022/10/19 02:28:17;;;;;;;15.55;6.75;;;6.70;99.90;;;;;;5069613;28;20084;-74
2022/10/19 02:30:42;;;;;;;14.05;5.97;;;6.70;99.90;;;;;;5070392;28;20183;-74
2022/10/19 02:33:08;;;;;;;15.57;6.13;;;6.70;99.90;;;;;;5065220;28;20120;-74
2022/10/19 02:35:34;;;;;;;12.43;5.75;;;6.70;99.90;;;;;;5064007;28;20574;-74
2022/10/19 02:38:02;;;;;;;14.93;6.55;;;6.60;99.90;;;;;;5069939;28;20092;-73
2022/10/19 02:40:35;;;;;;;13.23;6.80;;;6.60;99.90;;;;;;5070947;28;20121;-73
2022/10/19 02:43:05;;;;;;;20.60;7.43;;;6.60;99.90;;;;;;5065029;28;20025;-73
2022/10/19 02:45:36;;;;;;;22.13;7.65;;;6.60;99.90;;;;;;5068148;28;20512;-73
2022/10/19 02:48:10;;;;;;;16.38;8.50;;;6.60;99.90;;;;;;5064185;28;20040;-73
2022/10/19 02:50:35;;;;;;;18.15;8.65;;;6.60;99.90;;;;;;5068293;28;20016;-73
2022/10/19 02:53:01;;;;;;;18.02;8.05;;;6.60;99.90;;;;;;5067425;28;20036;-73
2022/10/19 02:55:28;;;;;;;18.23;7.78;;;6.60;99.90;;;;;;5065956;28;20025;-73
2022/10/19 02:57:54;;;;;;;18.98;9.43;;;6.70;99.90;;;;;;5067432;28;20036;-74
2022/10/19 03:00:19;;;;;;;22.73;11.05;;;6.80;99.90;;;;;;5067074;28;20082;-74
2022/10/19 03:02:45;;;;;;;17.02;9.45;;;6.80;99.90;;;;;;5065703;28;20024;-73
2022/10/19 03:05:10;;;;;;;19.65;10.50;;;6.90;99.90;;;;;;5066718;28;20036;-73
2022/10/19 03:07:36;;;;;;;17.90;8.70;;;6.90;99.90;;;;;;5063242;28;20036;-73
2022/10/19 03:10:02;;;;;;;18.50;9.10;;;6.90;99.90;;;;;;5060463;28;20021;-74
2022/10/19 03:12:27;;;;;;;20.38;9.20;;;6.90;99.90;;;;;;5064799;28;20499;-73
2022/10/19 03:14:53;;;;;;;20.10;10.68;;;6.90;99.90;;;;;;5061811;28;20028;-74
2022/10/19 03:17:18;;;;;;;21.20;11.20;;;6.90;99.90;;;;;;5064292;28;20035;-74
2022/10/19 03:19:44;;;;;;;22.27;10.38;;;7.00;99.90;;;;;;5065186;28;20028;-73
2022/10/19 03:22:11;;;;;;;25.85;11.93;;;6.90;99.90;;;;;;5070541;28;20476;-73
2022/10/19 03:24:36;;;;;;;13.75;8.82;;;6.90;99.90;;;;;;5069582;28;20013;-73
2022/10/19 03:27:02;;;;;;;17.40;7.93;;;6.90;99.90;;;;;;5065234;28;20512;-73
2022/10/19 03:29:27;;;;;;;15.35;8.27;;;6.90;99.90;;;;;;5069537;28;20079;-73
2022/10/19 03:31:53;;;;;;;26.13;11.32;;;6.90;99.90;;;;;;5069350;28;20079;-73
2022/10/19 03:34:18;;;;;;;19.50;10.18;;;6.90;99.90;;;;;;5060304;28;20059;-74
2022/10/19 03:36:44;;;;;;;20.08;10.80;;;7.00;99.90;;;;;;5061354;28;20024;-74
2022/10/19 03:39:12;;;;;;;24.90;10.63;;;7.00;99.90;;;;;;5065503;28;20035;-73
2022/10/19 03:41:38;;;;;;;19.25;10.93;;;7.00;99.90;;;;;;5059414;28;20350;-73
2022/10/19 03:44:06;;;;;;;18.58;10.10;;;7.00;99.90;;;;;;5057382;28;20028;-73
2022/10/19 03:46:32;;;;;;;24.17;10.00;;;7.00;99.90;;;;;;5069931;28;20041;-73
2022/10/19 03:48:57;;;;;;;19.35;9.90;;;7.00;99.90;;;;;;5060387;28;20365;-73
2022/10/19 03:51:25;;;;;;;61.50;12.40;;;6.90;99.90;;;;;;5056835;28;20078;-74
2022/10/19 03:53:58;;;;;;;47.22;11.15;;;6.90;99.90;;;;;;5055532;28;20126;-73
2022/10/19 03:56:26;;;;;;;45.28;11.93;;;6.90;99.90;;;;;;5064138;28;20016;-73
2022/10/19 03:58:53;;;;;;;42.70;12.25;;;7.00;99.90;;;;;;5052139;28;20445;-73
2022/10/19 04:01:28;;;;;;;22.08;10.63;;;6.90;99.90;;;;;;5059594;28;20481;-73
2022/10/19 04:03:59;;;;;;;34.58;11.63;;;7.00;99.90;;;;;;5051022;28;20112;-73
2022/10/19 04:06:26;;;;;;;51.67;12.70;;;6.90;99.90;;;;;;5058258;28;20020;-74
2022/10/19 04:08:52;;;;;;;39.33;12.68;;;6.90;99.90;;;;;;5062027;28;20125;-73
2022/10/19 04:11:21;;;;;;;25.48;11.32;;;6.90;99.90;;;;;;5067289;28;20569;-74
2022/10/19 04:13:51;;;;;;;29.50;13.00;;;6.90;99.90;;;;;;5069221;28;20064;-73
2022/10/19 04:16:17;;;;;;;33.35;12.60;;;6.90;99.90;;;;;;5059677;28;20448;-74
2022/10/19 04:18:43;;;;;;;55.95;12.10;;;6.90;99.90;;;;;;5066283;28;20047;-73
2022/10/19 04:21:27;;;;;;;42.28;11.85;;;6.90;99.90;;;;;;5068863;28;20024;-73
2022/10/19 04:23:57;;;;;;;71.93;12.48;;;6.90;99.90;;;;;;5053745;28;20945;-74
2022/10/19 04:26:23;;;;;;;55.00;11.63;;;6.80;99.90;;;;;;5057246;28;20012;-74
2022/10/19 04:28:48;;;;;;;62.60;12.20;;;6.80;99.90;;;;;;5052288;28;20471;-74
2022/10/19 04:31:14;;;;;;;93.25;13.93;;;6.80;99.90;;;;;;5061623;28;20408;-74
2022/10/19 04:33:40;;;;;;;39.60;11.55;;;6.80;99.90;;;;;;5068270;28;20071;-74
2022/10/19 04:36:08;;;;;;;46.95;12.25;;;6.70;99.90;;;;;;5057033;28;20064;-74
2022/10/19 04:38:34;;;;;;;97.28;13.75;;;6.70;99.90;;;;;;5064435;28;20036;-74
2022/10/19 04:41:02;;;;;;;73.50;11.63;;;6.70;99.90;;;;;;5059370;28;20033;-74
2022/10/19 04:43:27;;;;;;;71.07;12.25;;;6.70;99.90;;;;;;5066710;28;20024;-74
2022/10/19 04:45:53;;;;;;;69.75;12.27;;;6.70;99.90;;;;;;5067501;28;20021;-74
2022/10/19 04:48:18;;;;;;;40.58;11.82;;;6.60;99.90;;;;;;5065509;28;20082;-74
2022/10/19 04:50:44;;;;;;;41.10;11.35;;;6.60;99.90;;;;;;5069191;28;20388;-75
2022/10/19 04:53:09;;;;;;;47.25;11.25;;;6.60;99.90;;;;;;5059618;28;20040;-75
2022/10/19 04:55:40;;;;;;;72.82;11.80;;;6.50;99.90;;;;;;5050599;28;20017;-75
2022/10/19 04:58:06;;;;;;;37.88;10.77;;;6.50;99.90;;;;;;5053323;28;20052;-75
2022/10/19 05:00:31;;;;;;;24.55;11.38;;;6.50;99.90;;;;;;5057317;28;20037;-75
2022/10/19 05:02:57;;;;;;;16.50;10.30;;;6.50;99.90;;;;;;5057906;28;20034;-75
2022/10/19 05:05:24;;;;;;;27.13;11.30;;;6.50;99.90;;;;;;5063221;28;20074;-75
2022/10/19 05:07:49;;;;;;;40.13;11.57;;;6.40;99.90;;;;;;5068206;28;20020;-75
2022/10/19 05:10:15;;;;;;;56.25;11.85;;;6.40;99.90;;;;;;5063752;28;20115;-76
2022/10/19 05:12:40;;;;;;;47.78;11.25;;;6.40;99.90;;;;;;5060044;28;20163;-76
2022/10/19 05:15:07;;;;;;;39.85;10.32;;;6.40;99.90;;;;;;5057506;28;20025;-73
2022/10/19 05:17:32;;;;;;;42.97;10.73;;;6.30;99.90;;;;;;5072356;28;20020;-73
2022/10/19 05:19:58;;;;;;;43.55;10.00;;;6.30;99.90;;;;;;5062525;28;20050;-73
2022/10/19 05:22:23;;;;;;;13.80;10.05;;;6.30;99.90;;;;;;5064741;28;20170;-74
2022/10/19 05:24:49;;;;;;;16.73;10.07;;;6.20;99.90;;;;;;5070280;28;20021;-74
2022/10/19 05:27:14;;;;;;;23.05;10.43;;;6.20;99.90;;;;;;5059937;28;20129;-74
2022/10/19 05:29:40;;;;;;;19.83;10.05;;;6.20;99.90;;;;;;5055964;28;20382;-73
2022/10/19 05:32:05;;;;;;;28.33;9.55;;;6.20;99.90;;;;;;5061098;28;20036;-74
2022/10/19 05:34:31;;;;;;;17.55;9.93;;;6.10;99.90;;;;;;5065274;28;20476;-73
2022/10/19 05:36:56;;;;;;;19.60;9.60;;;6.10;99.90;;;;;;5070075;28;20096;-74
2022/10/19 05:39:22;;;;;;;23.92;10.73;;;6.00;99.90;;;;;;5064636;28;20028;-74
2022/10/19 05:41:48;;;;;;;21.52;9.90;;;5.90;99.90;;;;;;5071253;28;20060;-74
2022/10/19 05:44:21;;;;;;;27.05;11.02;;;5.90;99.90;;;;;;5060195;28;20518;-74
2022/10/19 05:46:49;;;;;;;36.22;10.93;;;5.90;99.90;;;;;;5058101;28;20029;-74
2022/10/19 05:49:16;;;;;;;32.90;11.23;;;5.80;99.90;;;;;;5063377;28;20067;-75
2022/10/19 05:51:42;;;;;;;36.55;11.63;;;5.80;99.90;;;;;;5061635;28;20358;-75
2022/10/19 05:54:09;;;;;;;27.75;10.52;;;5.80;99.90;;;;;;5071919;28;20052;-74
2022/10/19 05:56:35;;;;;;;52.47;11.55;;;5.80;99.90;;;;;;5072076;28;20029;-74
2022/10/19 05:59:04;;;;;;;35.25;11.52;;;5.80;99.90;;;;;;5072298;28;20431;-74
2022/10/19 06:01:31;;;;;;;43.20;13.30;;;5.80;99.90;;;;;;5058595;28;20175;-74
2022/10/19 06:03:58;;;;;;;25.80;11.35;;;5.80;99.90;;;;;;5068334;28;20400;-74
2022/10/19 06:06:25;;;;;;;23.88;11.68;;;5.70;99.90;;;;;;5061081;28;20110;-74
2022/10/19 06:08:52;;;;;;;22.77;12.57;;;5.70;99.90;;;;;;5053905;28;20457;-74
2022/10/19 06:11:23;;;;;;;45.17;12.63;;;5.70;99.90;;;;;;5070339;28;20021;-74
2022/10/19 06:13:50;;;;;;;41.03;13.45;;;5.70;99.90;;;;;;5062510;28;20162;-74
2022/10/19 06:16:17;;;;;;;44.30;12.07;;;5.70;99.90;;;;;;5064396;28;20056;-74
2022/10/19 06:18:44;;;;;;;78.88;14.82;;;5.70;99.90;;;;;;5069345;28;20530;-74
2022/10/19 06:21:12;;;;;;;53.85;13.40;;;5.80;99.90;;;;;;5060965;28;20400;-74
2022/10/19 06:23:39;;;;;;;66.57;13.45;;;5.70;99.90;;;;;;5062407;28;20027;-75
2022/10/19 06:26:07;;;;;;;42.95;13.63;;;5.70;99.90;;;;;;5068534;28;20052;-74
2022/10/19 06:28:33;;;;;;;98.90;14.50;;;5.70;99.90;;;;;;5072472;28;20059;-74
2022/10/19 06:30:59;;;;;;;58.40;13.52;;;5.80;99.90;;;;;;5069739;28;20464;-75
2022/10/19 06:33:26;;;;;;;122.03;15.30;;;5.80;99.90;;;;;;5066346;28;20032;-75
2022/10/19 06:35:52;;;;;;;81.82;13.07;;;5.80;99.90;;;;;;5067555;28;20025;-75
2022/10/19 06:38:17;;;;;;;72.18;13.50;;;5.80;99.90;;;;;;5067051;28;20099;-75
2022/10/19 06:40:43;;;;;;;53.35;12.43;;;5.80;99.90;;;;;;5069564;28;20536;-75
2022/10/19 06:43:09;;;;;;;65.15;14.82;;;5.80;99.90;;;;;;5068443;28;20040;-75
2022/10/19 06:45:37;;;;;;;37.10;12.35;;;5.90;99.90;;;;;;5069671;28;20064;-75
2022/10/19 06:48:03;;;;;;;50.00;11.93;;;5.90;99.90;;;;;;5060562;28;20025;-75
2022/10/19 06:50:30;;;;;;;73.30;13.15;;;5.90;99.90;;;;;;5061906;28;20402;-75
2022/10/19 06:52:57;;;;;;;70.00;13.15;;;5.90;99.90;;;;;;5065549;28;20033;-75
2022/10/19 06:55:22;;;;;;;45.47;13.18;;;5.90;99.90;;;;;;5062270;28;20727;-75
2022/10/19 06:57:48;;;;;;;44.13;12.65;;;6.00;99.90;;;;;;5053680;28;20029;-75
2022/10/19 07:00:14;;;;;;;41.35;13.30;;;5.90;99.90;;;;;;5064849;28;20083;-75
2022/10/19 07:02:39;;;;;;;34.40;13.45;;;6.00;99.90;;;;;;5071174;28;20032;-74
2022/10/19 07:05:06;;;;;;;45.25;13.30;;;6.00;99.90;;;;;;5070832;28;20024;-75
2022/10/19 07:07:31;;;;;;;58.30;13.57;;;6.10;99.90;;;;;;5068778;28;20376;-73
2022/10/19 07:09:57;;;;;;;50.72;12.98;;;6.10;99.90;;;;;;5073010;28;20017;-73
2022/10/19 07:12:22;;;;;;;58.40;13.45;;;6.10;99.90;;;;;;5071041;28;20033;-73
2022/10/19 07:14:48;;;;;;;42.33;14.02;;;6.10;99.90;;;;;;5063583;28;20025;-73
2022/10/19 07:17:14;;;;;;;21.20;13.48;;;6.20;99.90;;;;;;5072350;28;20134;-73
2022/10/19 07:19:39;;;;;;;25.83;13.15;;;6.20;99.90;;;;;;5079575;28;20028;-73
2022/10/19 07:22:05;;;;;;;31.15;14.60;;;6.30;99.90;;;;;;5069901;28;20040;-73
2022/10/19 07:24:30;;;;;;;26.85;15.32;;;6.40;99.90;;;;;;5060135;28;20158;-74
2022/10/19 07:26:57;;;;;;;21.60;15.02;;;6.40;99.90;;;;;;5061557;28;20027;-73
2022/10/19 07:29:23;;;;;;;21.95;15.07;;;6.50;99.90;;;;;;5067237;28;20109;-74
2022/10/19 07:31:48;;;;;;;23.92;15.05;;;6.60;99.90;;;;;;5070736;28;20064;-73
2022/10/19 07:34:15;;;;;;;27.75;15.80;;;6.70;99.90;;;;;;5061446;28;20052;-73
2022/10/19 07:36:44;;;;;;;26.02;16.83;;;6.80;99.90;;;;;;5059846;28;20551;-73
2022/10/19 07:39:11;;;;;;;26.27;16.50;;;6.90;99.90;;;;;;5073943;28;20357;-73
2022/10/19 07:41:37;;;;;;;28.95;16.75;;;7.00;99.90;;;;;;5072561;28;20055;-74
2022/10/19 07:44:03;;;;;;;24.70;16.27;;;7.10;99.90;;;;;;5072923;28;20023;-74
2022/10/19 07:46:34;;;;;;;31.83;17.23;;;7.20;99.90;;;;;;5070643;28;20107;-73
2022/10/19 07:49:00;;;;;;;26.35;16.42;;;7.20;99.90;;;;;;5069893;28;20067;-73
2022/10/19 07:51:26;;;;;;;31.08;16.80;;;7.30;99.90;;;;;;5063187;28;20082;-73
2022/10/19 07:53:52;;;;;;;31.98;18.05;;;7.30;99.90;;;;;;5070869;28;20032;-73
2022/10/19 07:56:23;;;;;;;26.25;16.60;;;7.30;99.90;;;;;;5069780;28;20107;-73
2022/10/19 07:58:50;;;;;;;27.35;17.08;;;7.40;99.90;;;;;;5069008;28;20025;-74
2022/10/19 08:01:20;;;;;;;29.20;17.40;;;7.40;99.90;;;;;;5069499;28;20059;-74
2022/10/19 08:03:46;;;;;;;32.13;16.83;;;7.50;99.90;;;;;;5060777;28;20419;-73
2022/10/19 08:06:15;;;;;;;26.13;16.30;;;7.50;99.90;;;;;;5067225;28;20488;-74
2022/10/19 08:08:41;;;;;;;27.60;14.73;;;7.60;99.90;;;;;;5060776;28;20036;-73
2022/10/19 08:11:12;;;;;;;26.30;15.52;;;7.60;99.90;;;;;;5069914;28;20104;-73
2022/10/19 08:13:38;;;;;;;34.20;15.82;;;7.70;99.90;;;;;;5068750;28;20044;-73
2022/10/19 08:16:04;;;;;;;27.85;16.25;;;7.70;99.90;;;;;;5064836;28;20059;-73
2022/10/19 08:18:30;;;;;;;26.13;16.88;;;7.80;99.90;;;;;;5065672;28;20369;-74
2022/10/19 08:20:56;;;;;;;27.30;16.85;;;8.00;99.90;;;;;;5069257;28;20017;-74
2022/10/19 08:23:22;;;;;;;25.33;16.25;;;8.10;99.90;;;;;;5050841;28;20044;-73
2022/10/19 08:25:48;;;;;;;30.02;16.38;;;8.30;99.90;;;;;;5063220;28;20420;-74
2022/10/19 08:28:14;;;;;;;24.08;15.88;;;8.40;99.90;;;;;;5060935;28;20056;-74
2022/10/19 08:30:39;;;;;;;27.98;15.68;;;8.50;99.90;;;;;;5067905;28;20075;-74
2022/10/19 08:33:07;;;;;;;24.67;15.15;;;8.70;99.90;;;;;;5056440;28;20452;-74
2022/10/19 08:35:33;;;;;;;23.48;14.93;;;8.80;99.90;;;;;;5068615;28;20025;-74
2022/10/19 08:37:58;;;;;;;22.05;12.90;;;8.90;99.90;;;;;;5070462;28;20112;-74
2022/10/19 08:40:27;;;;;;;21.05;13.27;;;9.00;99.90;;;;;;5070741;28;20523;-74
2022/10/19 08:43:10;;;;;;;21.17;13.23;;;9.20;99.90;;;;;;5074398;28;20111;-74
2022/10/19 08:45:45;;;;;;;19.45;12.63;;;9.30;99.90;;;;;;5059554;28;20044;-74
2022/10/19 08:48:35;;;;;;;20.20;12.20;;;9.50;99.90;;;;;;5073445;28;20051;-73
2022/10/19 08:51:04;;;;;;;17.52;9.73;;;9.70;99.90;;;;;;5069961;28;20479;-74
2022/10/19 08:54:03;;;;;;;13.50;9.07;;;9.80;99.90;;;;;;5072825;28;20036;-74
2022/10/19 08:56:33;;;;;;;16.08;8.82;;;9.90;99.90;;;;;;5073322;28;20024;-74
2022/10/19 08:59:25;;;;;;;13.90;7.95;;;10.10;99.90;;;;;;5065145;28;20025;-74
2022/10/19 09:02:21;;;;;;;13.43;7.18;;;10.20;99.90;;;;;;5070399;28;20070;-74
2022/10/19 09:04:54;;;;;;;14.93;7.35;;;10.40;99.90;;;;;;5067748;28;20041;-74
2022/10/19 09:07:31;;;;;;;10.00;5.78;;;10.50;99.90;;;;;;5059586;28;20361;-74
2022/10/19 09:10:03;;;;;;;10.60;6.20;;;10.60;99.90;;;;;;5064747;28;20073;-74
2022/10/19 09:12:44;;;;;;;8.43;5.53;;;10.70;99.90;;;;;;5065407;28;20081;-74
2022/10/19 09:15:47;;;;;;;14.30;5.72;;;10.90;99.90;;;;;;5071933;28;20063;-75
2022/10/19 09:18:28;;;;;;;6.30;4.80;;;11.00;99.90;;;;;;5071482;28;20055;-74
2022/10/19 09:21:04;;;;;;;14.93;4.40;;;11.20;99.90;;;;;;5068679;28;20071;-74
2022/10/19 09:23:45;;;;;;;9.05;4.35;;;11.30;99.90;;;;;;5065260;28;20036;-74
2022/10/19 09:26:17;;;;;;;8.20;3.63;;;11.30;99.90;;;;;;5071686;28;20028;-74
2022/10/19 09:29:16;;;;;;;6.73;3.60;;;11.50;99.90;;;;;;5071845;28;20123;-74
2022/10/19 09:31:42;;;;;;;7.07;3.80;;;11.60;99.90;;;;;;5072309;28;20287;-74
2022/10/19 09:34:16;;;;;;;7.22;3.15;;;11.70;99.90;;;;;;5066256;28;20127;-74
2022/10/19 09:36:47;;;;;;;8.52;3.72;;;11.70;99.90;;;;;;5070490;28;20082;-73
2022/10/19 09:39:13;;;;;;;7.18;2.90;;;11.70;99.90;;;;;;5065513;28;20028;-74
2022/10/19 09:42:29;;;;;;;9.73;3.15;;;11.80;99.90;;;;;;5064028;28;20028;-74
2022/10/19 09:44:55;;;;;;;8.85;2.95;;;12.00;99.90;;;;;;5067014;28;20142;-74
2022/10/19 09:47:38;;;;;;;8.32;2.20;;;12.10;99.90;;;;;;5070255;28;20082;-74
2022/10/19 09:50:07;;;;;;;8.45;1.67;;;12.20;99.90;;;;;;5055093;28;20060;-74
2022/10/19 09:52:36;;;;;;;2.83;1.48;;;12.30;99.90;;;;;;5070585;28;20082;-75
2022/10/19 09:55:26;;;;;;;7.68;1.20;;;12.40;99.90;;;;;;5071261;28;20032;-74
2022/10/19 09:58:01;;;;;;;3.08;0.70;;;12.50;99.90;;;;;;5062776;28;20493;-76
2022/10/19 10:00:45;;;;;;;4.13;0.60;;;12.50;99.90;;;;;;5063087;28;20025;-75
2022/10/19 10:03:24;;;;;;;5.10;1.25;;;12.60;99.90;;;;;;5053287;28;20025;-75
2022/10/19 10:05:50;;;;;;;5.38;0.63;;;12.70;99.90;;;;;;5070862;28;20128;-74
2022/10/19 10:08:22;;;;;;;7.82;0.80;;;12.70;99.90;;;;;;5071974;28;20025;-75
2022/10/19 10:11:11;;;;;;;3.28;0.57;;;12.80;99.90;;;;;;5064302;28;20025;-76
2022/10/19 10:13:42;;;;;;;5.82;0.65;;;12.80;99.90;;;;;;5063449;28;20048;-75
2022/10/19 10:16:15;;;;;;;5.35;0.80;;;12.80;99.90;;;;;;5070228;28;20029;-75
2022/10/19 10:18:53;;;;;;;4.40;1.33;;;12.90;99.90;;;;;;5073013;28;20035;-75
2022/10/19 10:21:22;;;;;;;5.78;0.50;;;12.90;99.90;;;;;;5071208;28;20052;-74
2022/10/19 10:24:00;;;;;;;3.65;0.45;;;13.00;99.90;;;;;;5057869;28;20087;-74
2022/10/19 10:26:26;;;;;;;4.57;0.60;;;13.00;99.90;;;;;;5065458;28;20709;-75
2022/10/19 10:28:52;;;;;;;8.40;0.70;;;13.10;99.90;;;;;;5071390;28;20028;-74
2022/10/19 10:31:24;;;;;;;2.97;0.55;;;13.20;99.90;;;;;;5071075;28;20102;-74
2022/10/19 10:34:18;;;;;;;2.10;0.50;;;13.20;99.90;;;;;;5072337;28;20032;-75
2022/10/19 10:36:47;;;;;;;3.80;0.55;;;13.30;99.90;;;;;;5068285;28;20056;-74
2022/10/19 10:39:16;;;;;;;4.50;0.45;;;13.30;99.90;;;;;;5057606;28;20401;-73
2022/10/19 10:41:43;;;;;;;4.38;0.50;;;13.40;99.90;;;;;;5057859;28;20017;-75
2022/10/19 10:44:25;;;;;;;4.65;0.57;;;13.40;99.90;;;;;;5060031;28;21012;-74
2022/10/19 10:46:55;;;;;;;3.38;0.60;;;13.50;99.90;;;;;;5068643;28;20025;-75
2022/10/19 10:49:35;;;;;;;3.47;0.50;;;13.50;99.90;;;;;;5052475;28;20032;-74
2022/10/19 10:52:14;;;;;;;3.47;0.40;;;13.50;99.90;;;;;;5070737;28;20021;-74
2022/10/19 10:54:55;;;;;;;5.88;0.47;;;13.50;99.90;;;;;;5061314;28;20548;-75
2022/10/19 10:57:23;;;;;;;2.92;0.45;;;13.40;99.90;;;;;;5070683;28;20040;-75
2022/10/19 11:00:10;;;;;;;5.45;0.47;;;13.50;99.90;;;;;;5062144;28;20025;-74
2022/10/19 11:03:03;;;;;;;2.75;0.50;;;13.60;99.90;;;;;;5060746;28;20017;-75
2022/10/19 11:05:44;;;;;;;2.70;0.43;;;13.70;99.90;;;;;;5062102;28;20112;-75
2022/10/19 11:08:28;;;;;;;4.38;0.88;;;13.80;99.90;;;;;;5062887;28;20032;-75
2022/10/19 11:11:00;;;;;;;4.68;0.40;;;13.80;99.90;;;;;;5071554;28;20544;-75
2022/10/19 11:13:48;;;;;;;3.10;0.40;;;13.80;99.90;;;;;;5057566;28;20086;-71
2022/10/19 11:16:18;;;;;;;4.05;0.60;;;13.90;99.90;;;;;;5062077;28;20037;-75
2022/10/19 11:19:07;;;;;;;3.15;0.60;;;13.80;99.90;;;;;;5052015;28;20401;-74
2022/10/19 11:21:59;;;;;;;2.95;0.40;;;13.90;99.90;;;;;;5059133;28;20052;-76
2022/10/19 11:24:46;;;;;;;5.03;0.52;;;13.90;99.90;;;;;;5054220;28;20028;-74
2022/10/19 11:27:17;;;;;;;2.20;0.40;;;13.90;99.90;;;;;;5051543;28;20393;-74
2022/10/19 11:30:12;;;;;;;1.60;0.40;;;14.00;99.90;;;;;;5055416;28;20405;-74
2022/10/19 11:33:05;;;;;;;3.90;0.40;;;14.00;99.90;;;;;;5050457;28;20063;-74
2022/10/19 11:35:39;;;;;;;1.10;0.40;;;14.10;99.90;;;;;;5052718;28;20485;-74
2022/10/19 11:38:39;;;;;;;4.00;0.60;;;14.20;99.90;;;;;;5053132;28;20483;-74
2022/10/19 11:41:26;;;;;;;5.13;0.65;;;14.20;99.90;;;;;;5051192;28;20033;-74
2022/10/19 11:44:23;;;;;;;7.80;0.70;;;14.20;99.90;;;;;;5067248;28;20064;-74
2022/10/19 11:47:00;;;;;;;3.72;0.60;;;14.20;99.90;;;;;;5066661;28;20147;-74
2022/10/19 11:49:44;;;;;;;3.83;0.82;;;14.30;99.90;;;;;;5065223;28;20040;-74
2022/10/19 11:52:21;;;;;;;3.22;0.60;;;14.40;99.90;;;;;;5069370;28;20554;-74
2022/10/19 11:55:32;;;;;;;6.88;0.85;;;14.40;99.90;;;;;;5064172;28;20024;-74
2022/10/19 11:58:28;;;;;;;5.53;0.50;;;14.40;99.90;;;;;;5053119;28;20045;-74
2022/10/19 12:01:19;;;;;;;3.25;0.50;;;14.50;99.90;;;;;;5058854;28;20025;-75
2022/10/19 12:04:02;;;;;;;6.43;0.90;;;14.60;99.90;;;;;;5056483;28;20041;-74
2022/10/19 12:06:46;;;;;;;2.72;0.47;;;14.70;99.90;;;;;;5061960;28;20503;-74
2022/10/19 12:09:35;;;;;;;4.10;0.50;;;14.70;99.90;;;;;;5057017;28;20028;-74
2022/10/19 12:12:15;;;;;;;3.95;0.52;;;14.70;99.90;;;;;;5067185;28;20021;-74
2022/10/19 12:14:44;;;;;;;3.38;0.50;;;14.60;99.90;;;;;;5072594;28;20040;-73
2022/10/19 12:17:31;;;;;;;5.43;0.60;;;14.70;99.90;;;;;;5074363;28;20515;-73
2022/10/19 12:20:05;;;;;;;5.68;0.80;;;14.80;99.90;;;;;;5072793;28;20039;-73
2022/10/19 12:22:36;;;;;;;2.03;0.50;;;14.80;99.90;;;;;;5068011;28;20028;-75
2022/10/19 12:25:02;;;;;;;4.55;0.85;;;14.70;99.90;;;;;;5060071;28;20024;-74
2022/10/19 12:27:34;;;;;;;4.45;0.70;;;14.70;99.90;;;;;;5067465;28;20411;-74
2022/10/19 12:30:14;;;;;;;5.35;0.70;;;14.70;99.90;;;;;;5068970;28;20049;-74
2022/10/19 12:33:21;;;;;;;2.63;0.80;;;14.80;99.90;;;;;;5055084;28;20124;-74
2022/10/19 12:36:25;;;;;;;6.07;0.80;;;14.80;99.90;;;;;;5060855;28;20033;-74
2022/10/19 12:39:19;;;;;;;3.72;0.73;;;14.70;99.90;;;;;;5053956;28;20025;-74
2022/10/19 12:41:51;;;;;;;3.88;0.93;;;14.80;99.90;;;;;;5066668;28;20033;-74
2022/10/19 12:44:54;;;;;;;3.00;0.90;;;14.80;99.90;;;;;;5073549;28;20030;-74
2022/10/19 12:47:21;;;;;;;3.60;0.98;;;14.90;99.90;;;;;;5061050;28;20457;-74
2022/10/19 12:49:51;;;;;;;4.70;1.63;;;14.90;99.90;;;;;;5060901;28;20111;-74
2022/10/19 12:52:38;;;;;;;5.65;1.75;;;14.90;99.90;;;;;;5073357;28;20500;-74
2022/10/19 12:55:26;;;;;;;5.57;1.27;;;14.80;99.90;;;;;;5072455;28;20452;-74
2022/10/19 12:58:04;;;;;;;4.13;1.10;;;14.80;99.90;;;;;;5055143;28;20039;-73
2022/10/19 13:00:34;;;;;;;3.42;1.10;;;14.80;99.90;;;;;;5054365;28;20025;-74
2022/10/19 13:03:21;;;;;;;4.45;0.93;;;14.90;99.90;;;;;;5055917;28;20021;-74
2022/10/19 13:06:01;;;;;;;5.32;0.90;;;14.90;99.90;;;;;;5068278;28;20111;-74
2022/10/19 13:08:33;;;;;;;2.60;0.80;;;15.00;99.90;;;;;;5062356;28;20056;-74